Time;durP1;ratioP1;P1;durP2;ratioP2;P2;SDS_P1;SDS_P2;PMS_P1;PMS_P2;Temp;Humidity;BMP_temperature;BMP_pressure;BME280_temperature;BME280_humidity;BME280_pressure;Samples;Min_cycle;Max_cycle;Signal;HPM_P1;HPM_P2
2022/10/10 00:00:48;;;;;;;42.20;38.85;;;;;;;12.80;100.00;101978.09;6156433;23;20018;-79
2022/10/10 00:03:16;;;;;;;43.10;39.50;;;;;;;12.88;100.00;101982.44;6156615;23;20022;-79
2022/10/10 00:05:43;;;;;;;44.60;40.97;;;;;;;12.83;100.00;101981.19;6157094;23;20013;-80
2022/10/10 00:08:10;;;;;;;41.35;37.97;;;;;;;12.91;100.00;101985.56;6157065;23;20029;-79
2022/10/10 00:10:38;;;;;;;43.25;39.72;;;;;;;12.90;100.00;101983.09;6156596;23;20080;-79
2022/10/10 00:13:06;;;;;;;46.15;42.40;;;;;;;12.89;100.00;101981.41;6156947;23;20392;-80
2022/10/10 00:15:34;;;;;;;96.80;81.15;;;;;;;12.96;100.00;101991.16;6157026;23;20022;-79
2022/10/10 00:18:03;;;;;;;63.35;57.20;;;;;;;12.93;100.00;101996.03;6157285;23;20029;-79
2022/10/10 00:20:30;;;;;;;42.10;39.03;;;;;;;12.78;100.00;101988.91;6160120;23;20163;-80
2022/10/10 00:22:57;;;;;;;42.95;39.47;;;;;;;12.81;100.00;101998.38;6158234;23;20025;-79
2022/10/10 00:25:25;;;;;;;41.78;38.38;;;;;;;12.84;100.00;101985.50;6157749;23;20022;-80
2022/10/10 00:27:54;;;;;;;40.72;37.20;;;;;;;12.58;100.00;101991.34;6158310;23;20017;-78
2022/10/10 00:30:21;;;;;;;43.13;39.45;;;;;;;12.72;100.00;101978.19;6157945;23;20394;-80
2022/10/10 00:32:49;;;;;;;44.47;41.28;;;;;;;12.76;100.00;101982.13;6157709;23;20025;-81
2022/10/10 00:35:16;;;;;;;44.33;40.63;;;;;;;12.71;100.00;101973.84;6158923;23;20375;-79
2022/10/10 00:37:43;;;;;;;41.65;38.65;;;;;;;12.78;100.00;101980.09;6158209;23;20017;-79
2022/10/10 00:40:11;;;;;;;39.15;36.10;;;;;;;12.79;100.00;101979.91;6157714;23;20029;-80
2022/10/10 00:42:38;;;;;;;40.78;37.75;;;;;;;12.79;100.00;101981.75;6158139;23;20088;-79
2022/10/10 00:45:28;;;;;;;43.10;39.88;;;;;;;12.80;100.00;101986.09;6157516;23;20026;-80
2022/10/10 00:48:02;;;;;;;45.35;42.20;;;;;;;12.65;100.00;101988.78;6158499;23;20431;-80
2022/10/10 00:50:31;;;;;;;42.72;38.97;;;;;;;12.69;100.00;101991.91;6158589;23;20401;-78
2022/10/10 00:53:00;;;;;;;42.47;39.03;;;;;;;12.42;100.00;101991.59;6157215;23;20021;-79
2022/10/10 00:55:30;;;;;;;42.83;39.10;;;;;;;12.17;100.00;102001.75;6157547;23;20506;-78
2022/10/10 00:57:58;;;;;;;44.53;40.97;;;;;;;12.00;100.00;101995.78;6158694;23;20018;-80
2022/10/10 01:00:25;;;;;;;43.58;40.03;;;;;;;12.13;100.00;101987.97;6159371;23;20021;-79
2022/10/10 01:02:52;;;;;;;45.80;41.92;;;;;;;12.00;100.00;102005.59;6157354;23;20092;-79
2022/10/10 01:05:21;;;;;;;44.35;40.72;;;;;;;11.89;100.00;102005.06;6157331;23;20443;-80
2022/10/10 01:07:50;;;;;;;43.50;39.80;;;;;;;11.70;100.00;101994.91;6157646;23;20021;-79
2022/10/10 01:10:21;;;;;;;47.63;44.17;;;;;;;11.57;100.00;102005.34;6157532;23;20021;-83
2022/10/10 01:13:07;;;;;;;46.17;41.53;;;;;;;12.07;100.00;102004.69;6159699;23;20026;-80
2022/10/10 01:15:47;;;;;;;43.33;39.65;;;;;;;11.58;100.00;102005.16;6158890;23;20021;-79
2022/10/10 01:18:24;;;;;;;42.47;38.92;;;;;;;11.58;100.00;102007.81;6157636;23;20104;-80
2022/10/10 01:21:08;;;;;;;44.63;40.72;;;;;;;11.38;100.00;102012.84;6159076;23;20058;-79
2022/10/10 01:24:05;;;;;;;45.80;41.70;;;;;;;11.37;100.00;102021.81;6158804;23;20093;-80
2022/10/10 01:26:47;;;;;;;45.08;41.22;;;;;;;11.34;100.00;102022.16;6157590;23;20510;-79
2022/10/10 01:29:25;;;;;;;47.03;42.53;;;;;;;10.70;100.00;102027.75;6159639;23;20026;-79
2022/10/10 01:31:56;;;;;;;46.97;43.03;;;;;;;11.04;100.00;102026.56;6158815;23;20099;-81
2022/10/10 01:34:29;;;;;;;50.28;46.03;;;;;;;11.27;100.00;102025.75;6158520;23;20100;-80
2022/10/10 01:37:04;;;;;;;47.00;42.92;;;;;;;11.15;100.00;102031.47;6157987;23;20040;-79
2022/10/10 01:39:40;;;;;;;45.63;41.45;;;;;;;10.93;100.00;102034.97;6158671;23;20018;-79
2022/10/10 01:42:10;;;;;;;48.35;44.00;;;;;;;10.84;100.00;102030.69;6157369;23;20025;-79
2022/10/10 01:44:43;;;;;;;48.97;44.45;;;;;;;11.17;100.00;102033.97;6157042;23;20053;-79
2022/10/10 01:47:12;;;;;;;45.67;41.70;;;;;;;10.86;100.00;102036.66;6158336;23;20395;-78
2022/10/10 01:49:42;;;;;;;50.28;45.92;;;;;;;11.00;100.00;102042.03;6158903;23;20026;-78
2022/10/10 01:52:22;;;;;;;50.95;46.75;;;;;;;11.21;100.00;102035.25;6158731;23;20018;-80
2022/10/10 01:54:59;;;;;;;46.20;42.38;;;;;;;11.06;100.00;102039.69;6157873;23;20022;-79
2022/10/10 01:57:40;;;;;;;45.30;41.42;;;;;;;10.86;100.00;102033.97;6159371;23;20030;-79
2022/10/10 02:02:58;;;;;;;46.83;42.85;;;;;;;10.97;100.00;102036.25;6138166;23;20032;-81
2022/10/10 02:05:29;;;;;;;47.92;43.90;;;;;;;10.84;100.00;102049.31;6156607;23;20029;-80
2022/10/10 02:08:00;;;;;;;46.92;43.00;;;;;;;10.78;100.00;102042.84;6158625;23;20048;-79
2022/10/10 02:10:31;;;;;;;47.72;43.47;;;;;;;10.66;100.00;102046.91;6158795;23;20080;-79
2022/10/10 02:13:04;;;;;;;45.67;41.85;;;;;;;10.76;100.00;102043.00;6154690;23;20022;-81
2022/10/10 02:15:42;;;;;;;45.58;41.80;;;;;;;10.69;100.00;102041.25;6156179;23;20076;-83
2022/10/10 02:18:21;;;;;;;44.58;40.75;;;;;;;10.44;100.00;102045.81;6157734;23;20087;-80
2022/10/10 02:20:51;;;;;;;47.33;43.05;;;;;;;10.22;100.00;102058.81;6157618;23;20021;-79
2022/10/10 02:23:21;;;;;;;49.08;45.00;;;;;;;10.64;100.00;102054.22;6157144;23;20446;-80
2022/10/10 02:25:53;;;;;;;47.03;43.03;;;;;;;10.64;100.00;102057.69;6157527;23;20382;-80
2022/10/10 02:28:25;;;;;;;46.90;42.70;;;;;;;10.59;100.00;102061.88;6157727;23;20025;-80
2022/10/10 02:30:56;;;;;;;47.67;43.75;;;;;;;10.71;100.00;102061.31;6157307;23;20022;-79
2022/10/10 02:33:30;;;;;;;45.65;41.63;;;;;;;10.62;100.00;102059.72;6158119;23;20022;-79
2022/10/10 02:36:00;;;;;;;47.03;42.92;;;;;;;10.38;100.00;102067.75;6158097;23;20022;-79
2022/10/10 02:38:30;;;;;;;48.35;44.35;;;;;;;10.49;100.00;102059.44;6157204;23;20052;-79
2022/10/10 02:41:02;;;;;;;43.70;40.03;;;;;;;10.09;100.00;102063.84;6158369;23;20026;-80
2022/10/10 02:43:31;;;;;;;48.50;44.15;;;;;;;10.21;100.00;102069.63;6157997;23;20032;-80
2022/10/10 02:46:02;;;;;;;48.63;44.15;;;;;;;10.45;100.00;102076.72;6157857;23;20052;-80
2022/10/10 02:48:31;;;;;;;50.03;45.83;;;;;;;10.51;100.00;102073.38;6156228;23;20017;-80
2022/10/10 02:50:59;;;;;;;50.08;45.15;;;;;;;10.64;100.00;102072.81;6157709;23;20084;-80
2022/10/10 02:53:28;;;;;;;47.35;43.22;;;;;;;10.38;100.00;102068.63;6157895;23;20029;-80
2022/10/10 02:55:55;;;;;;;47.47;43.15;;;;;;;10.13;100.00;102075.78;6158480;23;20320;-79
2022/10/10 02:58:23;;;;;;;46.97;42.35;;;;;;;10.15;100.00;102079.09;6157206;23;20051;-79
2022/10/10 03:00:50;;;;;;;45.35;41.15;;;;;;;10.00;100.00;102078.97;6156954;23;20091;-79
2022/10/10 03:03:19;;;;;;;47.28;43.13;;;;;;;10.02;100.00;102076.16;6156466;23;20033;-80
2022/10/10 03:05:49;;;;;;;44.40;40.50;;;;;;;9.78;100.00;102085.78;6158689;23;20021;-80
2022/10/10 03:08:18;;;;;;;50.75;46.22;;;;;;;9.98;100.00;102085.44;6158292;23;20387;-80
2022/10/10 03:10:54;;;;;;;47.72;42.88;;;;;;;9.94;100.00;102084.13;6156172;23;20088;-79
2022/10/10 03:13:23;;;;;;;47.60;43.33;;;;;;;10.13;100.00;102078.44;6157365;23;20093;-79
2022/10/10 03:15:54;;;;;;;45.22;41.38;;;;;;;10.11;100.00;102084.94;6158833;23;20088;-80
2022/10/10 03:18:21;;;;;;;46.00;41.80;;;;;;;10.11;100.00;102088.41;6159009;23;20064;-81
2022/10/10 03:20:54;;;;;;;44.53;40.00;;;;;;;10.06;100.00;102104.81;6163435;23;20045;-80
2022/10/10 03:23:24;;;;;;;46.30;42.03;;;;;;;10.27;100.00;102099.00;6157478;23;20017;-79
2022/10/10 03:25:52;;;;;;;47.28;43.08;;;;;;;10.15;100.00;102104.81;6158212;23;20084;-82
2022/10/10 03:28:20;;;;;;;50.88;46.38;;;;;;;10.39;100.00;102102.13;6157358;23;20056;-81
2022/10/10 03:30:47;;;;;;;46.63;42.35;;;;;;;10.26;100.00;102109.78;6158174;23;20028;-81
2022/10/10 03:33:20;;;;;;;45.65;41.90;;;;;;;10.28;100.00;102103.31;6158766;23;20021;-82
2022/10/10 03:35:47;;;;;;;49.03;44.90;;;;;;;10.11;100.00;102116.78;6157980;23;20101;-81
2022/10/10 03:38:16;;;;;;;50.45;46.13;;;;;;;10.35;100.00;102115.91;6157421;23;20018;-82
2022/10/10 03:40:44;;;;;;;48.47;44.55;;;;;;;10.19;100.00;102109.59;6157430;23;20028;-81
2022/10/10 03:43:13;;;;;;;48.75;44.75;;;;;;;10.42;100.00;102114.25;6159019;23;20021;-81
2022/10/10 03:45:42;;;;;;;47.45;43.25;;;;;;;10.50;100.00;102109.75;6158920;23;20031;-81
2022/10/10 03:48:12;;;;;;;47.28;43.25;;;;;;;10.50;100.00;102098.28;6155679;23;20049;-81
2022/10/10 03:50:39;;;;;;;48.95;44.88;;;;;;;11.08;100.00;102107.63;6155766;23;20029;-80
2022/10/10 03:53:06;;;;;;;57.78;51.47;;;;;;;11.00;100.00;102116.47;6155727;23;20025;-81
2022/10/10 03:55:34;;;;;;;66.55;60.22;;;;;;;11.26;100.00;102119.84;6155754;23;20026;-80
2022/10/10 03:58:01;;;;;;;66.72;60.22;;;;;;;11.27;100.00;102119.66;6157405;23;20521;-79
2022/10/10 04:00:28;;;;;;;65.88;59.13;;;;;;;11.47;100.00;102122.69;6157164;23;20084;-80
2022/10/10 04:02:55;;;;;;;46.50;42.30;;;;;;;11.73;100.00;102118.81;6157257;23;20100;-81
2022/10/10 04:05:23;;;;;;;46.30;41.97;;;;;;;11.93;100.00;102117.34;6156060;23;20096;-81
2022/10/10 04:07:50;;;;;;;43.60;40.00;;;;;;;12.13;100.00;102113.16;6157904;23;20080;-81
2022/10/10 04:10:17;;;;;;;42.45;38.25;;;;;;;12.42;100.00;102118.66;6157637;23;20087;-80
2022/10/10 04:12:46;;;;;;;36.38;33.88;;;;;;;12.59;100.00;102112.97;6158003;23;20025;-84
2022/10/10 04:15:12;;;;;;;37.65;34.70;;;;;;;12.76;100.00;102113.56;6157604;23;20014;-80
2022/10/10 04:17:40;;;;;;;37.72;34.70;;;;;;;12.90;100.00;102106.56;6157300;23;20022;-80
2022/10/10 04:20:08;;;;;;;39.08;36.05;;;;;;;13.03;100.00;102119.22;6156180;23;20017;-80
2022/10/10 04:22:36;;;;;;;37.00;34.17;;;;;;;13.01;100.00;102122.09;6157362;23;20022;-79
2022/10/10 04:25:03;;;;;;;36.45;33.90;;;;;;;13.05;100.00;102114.53;6157190;23;20021;-80
2022/10/10 04:27:31;;;;;;;36.35;34.03;;;;;;;13.04;100.00;102120.88;6157092;23;20088;-80
2022/10/10 04:30:01;;;;;;;35.05;32.85;;;;;;;13.02;100.00;102128.25;6157927;23;20434;-79
2022/10/10 04:32:29;;;;;;;36.90;34.03;;;;;;;13.82;100.00;102134.41;6157573;23;20026;-81
2022/10/10 04:34:56;;;;;;;35.78;32.92;;;;;;;13.11;100.00;102135.13;6156997;23;20021;-81
2022/10/10 04:37:23;;;;;;;35.65;33.25;;;;;;;13.12;100.00;102134.09;6158067;23;20026;-79
2022/10/10 04:39:50;;;;;;;36.65;33.60;;;;;;;13.06;100.00;102140.19;6157385;23;20387;-81
2022/10/10 04:42:17;;;;;;;35.40;32.70;;;;;;;13.13;100.00;102141.09;6157183;23;20022;-81
2022/10/10 04:44:45;;;;;;;35.53;32.70;;;;;;;13.05;100.00;102139.38;6157007;23;20029;-80
2022/10/10 04:47:13;;;;;;;34.38;31.88;;;;;;;13.11;100.00;102129.78;6157596;23;20088;-80
2022/10/10 04:49:41;;;;;;;36.20;33.60;;;;;;;13.11;100.00;102135.13;6157325;23;20022;-80
2022/10/10 04:52:08;;;;;;;34.25;31.80;;;;;;;13.12;100.00;102147.44;6157776;23;20100;-80
2022/10/10 04:54:36;;;;;;;33.78;31.25;;;;;;;13.21;100.00;102143.63;6156606;23;20092;-80
2022/10/10 04:57:04;;;;;;;34.15;31.85;;;;;;;13.28;100.00;102149.06;6156342;23;20073;-80
2022/10/10 04:59:32;;;;;;;35.28;32.65;;;;;;;13.22;100.00;102147.13;6157115;23;20022;-79
2022/10/10 05:01:59;;;;;;;34.90;32.13;;;;;;;13.33;100.00;102146.69;6157251;23;20095;-79
2022/10/10 05:04:29;;;;;;;34.90;32.35;;;;;;;13.19;100.00;102151.03;6156597;23;20052;-83
2022/10/10 05:06:57;;;;;;;36.10;33.50;;;;;;;13.26;100.00;102153.78;6156840;23;20026;-80
2022/10/10 05:09:24;;;;;;;36.33;34.13;;;;;;;13.26;100.00;102153.78;6156967;23;20021;-80
2022/10/10 05:11:53;;;;;;;35.90;33.45;;;;;;;13.29;100.00;102159.56;6156162;23;20025;-79
2022/10/10 05:14:21;;;;;;;36.33;33.88;;;;;;;13.28;100.00;102157.06;6157115;23;20033;-80
2022/10/10 05:16:48;;;;;;;37.25;35.03;;;;;;;13.32;100.00;102163.72;6158444;23;20374;-79
2022/10/10 05:19:15;;;;;;;38.00;35.83;;;;;;;13.27;100.00;102158.09;6156623;23;20025;-80
2022/10/10 05:21:44;;;;;;;37.28;34.70;;;;;;;13.34;100.00;102159.00;6157657;23;20025;-80
2022/10/10 05:24:12;;;;;;;35.15;33.15;;;;;;;13.22;100.00;102165.81;6156590;23;20473;-82
2022/10/10 05:26:39;;;;;;;47.10;44.33;;;;;;;13.28;100.00;102163.28;6159579;23;20108;-81
2022/10/10 05:29:06;;;;;;;45.70;42.70;;;;;;;13.28;100.00;102173.09;6157206;23;20017;-80
2022/10/10 05:31:33;;;;;;;45.63;42.38;;;;;;;13.48;100.00;102179.47;6158115;23;20052;-80
2022/10/10 05:34:00;;;;;;;44.75;41.80;;;;;;;13.40;100.00;102174.25;6157778;23;20025;-78
2022/10/10 05:36:29;;;;;;;47.40;44.58;;;;;;;13.42;100.00;102182.06;6158253;23;20084;-80
2022/10/10 05:38:58;;;;;;;47.55;44.25;;;;;;;13.47;100.00;102179.69;6159021;23;20083;-78
2022/10/10 05:41:26;;;;;;;42.97;39.50;;;;;;;13.35;100.00;102175.84;6160324;23;20017;-79
2022/10/10 05:43:53;;;;;;;41.15;38.20;;;;;;;13.62;100.00;102179.63;6158289;23;20018;-80
2022/10/10 05:46:23;;;;;;;40.60;38.10;;;;;;;13.65;100.00;102185.41;6158467;23;20040;-81
2022/10/10 05:48:52;;;;;;;44.75;40.63;;;;;;;13.64;100.00;102180.25;6157095;23;20021;-81
2022/10/10 05:51:21;;;;;;;43.40;40.67;;;;;;;13.81;100.00;102184.31;6156667;23;20029;-79
2022/10/10 05:53:48;;;;;;;41.97;39.47;;;;;;;13.67;100.00;102198.53;6157178;23;20044;-79
2022/10/10 05:56:17;;;;;;;41.80;38.83;;;;;;;13.89;100.00;102191.38;6158165;23;20442;-80
2022/10/10 05:58:45;;;;;;;42.75;40.15;;;;;;;14.00;100.00;102198.84;6158593;23;20021;-80
2022/10/10 06:01:12;;;;;;;45.80;43.13;;;;;;;13.89;100.00;102202.88;6156089;23;20096;-81
2022/10/10 06:03:39;;;;;;;42.45;40.05;;;;;;;13.81;100.00;102205.69;6157267;23;20025;-81
2022/10/10 06:06:06;;;;;;;42.42;39.70;;;;;;;13.99;100.00;102207.91;6158211;23;20443;-79
2022/10/10 06:08:34;;;;;;;43.50;41.17;;;;;;;14.00;100.00;102200.69;6156984;23;20029;-80
2022/10/10 06:11:02;;;;;;;42.30;39.75;;;;;;;13.99;100.00;102205.22;6156347;23;20457;-79
2022/10/10 06:13:31;;;;;;;42.15;39.67;;;;;;;14.35;100.00;102209.63;6156430;23;20029;-79
2022/10/10 06:15:58;;;;;;;33.83;31.63;;;;;;;14.43;100.00;102215.66;6155251;23;20026;-81
2022/10/10 06:18:25;;;;;;;56.00;52.95;;;;;;;14.35;100.00;102205.09;6155890;23;20032;-82
2022/10/10 06:20:54;;;;;;;44.78;42.08;;;;;;;14.70;100.00;102209.66;6155977;23;20084;-79
2022/10/10 06:23:22;;;;;;;45.67;42.63;;;;;;;14.81;100.00;102217.13;6153607;23;20029;-80
2022/10/10 06:25:51;;;;;;;46.42;43.00;;;;;;;15.03;100.00;102207.97;6154031;23;20025;-80
2022/10/10 06:28:18;;;;;;;48.95;46.00;;;;;;;15.22;100.00;102213.59;6155160;23;20502;-80
2022/10/10 06:30:49;;;;;;;50.03;47.13;;;;;;;15.32;100.00;102216.75;6153980;23;20490;-79
2022/10/10 06:33:19;;;;;;;48.60;45.78;;;;;;;15.85;100.00;102218.75;6152320;23;20029;-79
2022/10/10 06:35:49;;;;;;;45.42;42.83;;;;;;;15.88;100.00;102215.66;6156436;23;20394;-79
2022/10/10 06:38:17;;;;;;;53.45;50.72;;;;;;;15.58;100.00;102211.47;6156207;23;20017;-81
2022/10/10 06:40:44;;;;;;;51.42;48.53;;;;;;;15.94;100.00;102212.16;6156514;23;20442;-82
2022/10/10 06:43:13;;;;;;;48.92;45.92;;;;;;;15.76;100.00;102218.09;6154707;23;20068;-79
2022/10/10 06:45:42;;;;;;;47.58;44.97;;;;;;;15.83;100.00;102218.16;6155184;23;20022;-79
2022/10/10 06:48:11;;;;;;;45.78;42.85;;;;;;;15.88;100.00;102219.16;6155546;23;20088;-80
2022/10/10 06:50:41;;;;;;;41.60;38.95;;;;;;;16.12;100.00;102220.41;6156343;23;20033;-79
2022/10/10 06:53:07;;;;;;;42.78;40.10;;;;;;;16.09;100.00;102223.50;6155847;23;20044;-80
2022/10/10 06:55:34;;;;;;;42.17;39.45;;;;;;;16.36;100.00;102207.41;6154210;23;20089;-79
2022/10/10 06:58:01;;;;;;;41.92;39.20;;;;;;;16.56;100.00;102220.78;6156872;23;20025;-79
2022/10/10 07:00:28;;;;;;;40.55;38.25;;;;;;;16.18;96.64;102221.44;6156917;23;20028;-81
2022/10/10 07:02:55;;;;;;;40.22;37.75;;;;;;;16.00;93.07;102225.56;6155869;23;20017;-79
2022/10/10 07:05:23;;;;;;;43.17;40.38;;;;;;;16.17;91.13;102220.63;6156110;23;20091;-78
2022/10/10 07:07:51;;;;;;;39.78;37.47;;;;;;;16.98;93.87;102224.84;6156048;23;20026;-79
2022/10/10 07:10:18;;;;;;;39.22;37.05;;;;;;;17.12;96.42;102222.91;6156460;23;20033;-80
2022/10/10 07:12:45;;;;;;;41.45;38.92;;;;;;;16.99;83.45;102231.84;6156489;23;20130;-80
2022/10/10 07:15:13;;;;;;;43.20;40.55;;;;;;;16.90;100.00;102233.13;6156246;23;20076;-79
2022/10/10 07:17:40;;;;;;;41.38;39.08;;;;;;;16.77;87.57;102235.84;6155399;23;20087;-78
2022/10/10 07:20:07;;;;;;;41.67;38.83;;;;;;;16.66;92.18;102240.78;6156680;23;20095;-79
2022/10/10 07:22:35;;;;;;;41.72;39.38;;;;;;;16.66;83.66;102230.03;6155800;23;20032;-79
2022/10/10 07:25:02;;;;;;;41.42;39.33;;;;;;;17.01;90.51;102224.41;6155673;23;20447;-79
2022/10/10 07:27:29;;;;;;;40.00;37.63;;;;;;;16.78;76.00;102227.56;6155791;23;20044;-79
2022/10/10 07:29:56;;;;;;;34.90;32.20;;;;;;;16.89;74.01;102226.94;6156464;23;20017;-79
2022/10/10 07:32:23;;;;;;;33.90;31.77;;;;;;;16.81;75.97;102223.66;6156369;23;20040;-80
2022/10/10 07:34:50;;;;;;;35.17;32.22;;;;;;;17.18;87.05;102217.50;6156274;23;20108;-79
2022/10/10 07:37:17;;;;;;;35.13;32.50;;;;;;;17.43;74.60;102215.94;6155527;23;20022;-80
2022/10/10 07:39:45;;;;;;;35.40;33.25;;;;;;;17.75;89.06;102212.25;6156480;23;20025;-78
2022/10/10 07:42:11;;;;;;;34.63;32.17;;;;;;;17.91;83.27;102218.97;6156188;23;20025;-79
2022/10/10 07:44:38;;;;;;;48.40;46.00;;;;;;;18.20;69.04;102230.13;6156194;23;20084;-79
2022/10/10 07:47:05;;;;;;;45.88;43.40;;;;;;;17.60;67.25;102215.22;6156074;23;20025;-80
2022/10/10 07:49:32;;;;;;;45.25;42.83;;;;;;;17.88;66.21;102223.97;6155669;23;20041;-79
2022/10/10 07:51:59;;;;;;;47.63;45.22;;;;;;;17.90;65.46;102209.28;6156208;23;20029;-79
2022/10/10 07:54:26;;;;;;;45.95;43.47;;;;;;;18.15;62.26;102220.03;6155516;23;20022;-79
2022/10/10 07:56:54;;;;;;;47.95;45.45;;;;;;;17.85;58.04;102217.16;6155502;23;20018;-81
2022/10/10 07:59:22;;;;;;;49.42;47.08;;;;;;;18.58;66.50;102224.59;6156248;23;20390;-79
2022/10/10 08:01:48;;;;;;;49.00;46.30;;;;;;;18.82;59.00;102212.16;6155558;23;20026;-80
2022/10/10 08:04:15;;;;;;;49.75;46.75;;;;;;;19.11;58.35;102204.34;6155704;23;20022;-79
2022/10/10 08:06:42;;;;;;;46.33;43.63;;;;;;;19.20;64.59;102205.69;6155430;23;20431;-79
2022/10/10 08:09:09;;;;;;;47.55;44.65;;;;;;;19.29;55.26;102200.81;6155333;23;20028;-79
2022/10/10 08:11:36;;;;;;;44.65;41.65;;;;;;;18.89;51.56;102210.22;6155964;23;20022;-81
2022/10/10 08:14:04;;;;;;;33.88;31.63;;;;;;;19.19;52.20;102202.16;6155699;23;20459;-79
2022/10/10 08:16:31;;;;;;;32.72;30.88;;;;;;;19.14;51.21;102199.31;6155856;23;20033;-79
2022/10/10 08:18:58;;;;;;;33.33;31.30;;;;;;;18.96;60.19;102204.75;6156104;23;20029;-79
2022/10/10 08:21:25;;;;;;;47.60;44.90;;;;;;;19.11;57.99;102199.78;6155865;23;20017;-79
2022/10/10 08:23:52;;;;;;;47.33;44.72;;;;;;;19.20;55.22;102198.41;6155594;23;20029;-78
2022/10/10 08:26:19;;;;;;;49.22;46.63;;;;;;;18.76;56.90;102202.31;6156066;23;20029;-80
2022/10/10 08:28:47;;;;;;;49.70;47.30;;;;;;;19.56;52.59;102202.06;6155422;23;20112;-78
2022/10/10 08:31:16;;;;;;;47.63;45.33;;;;;;;19.79;48.29;102200.50;6155075;23;20537;-79
2022/10/10 08:33:44;;;;;;;45.95;43.65;;;;;;;19.40;52.43;102206.25;6156234;23;20022;-80
2022/10/10 08:36:14;;;;;;;33.83;31.38;;;;;;;19.26;67.53;102196.69;6155574;23;20081;-80
2022/10/10 08:38:41;;;;;;;33.78;31.75;;;;;;;19.48;54.59;102198.88;6156221;23;20013;-80
2022/10/10 08:41:10;;;;;;;34.40;32.60;;;;;;;18.98;49.78;102202.66;6157920;23;20017;-79
2022/10/10 08:43:44;;;;;;;34.53;32.55;;;;;;;19.36;49.82;102190.75;6157123;23;20506;-79
2022/10/10 08:46:19;;;;;;;43.95;41.65;;;;;;;19.77;48.70;102186.44;6157274;23;20091;-80
2022/10/10 08:48:47;;;;;;;41.63;39.10;;;;;;;19.91;48.42;102190.59;6157175;23;20021;-80
2022/10/10 08:51:23;;;;;;;46.72;43.63;;;;;;;19.53;49.58;102185.53;6156869;23;20029;-80
2022/10/10 08:53:55;;;;;;;44.53;42.22;;;;;;;19.95;48.58;102188.25;6156755;23;20087;-81
2022/10/10 08:56:27;;;;;;;46.92;44.33;;;;;;;19.99;47.96;102187.53;6156287;23;20032;-79
2022/10/10 08:59:00;;;;;;;51.67;49.08;;;;;;;19.80;47.99;102189.50;6156690;23;20022;-80
2022/10/10 09:01:33;;;;;;;45.10;42.40;;;;;;;19.89;49.82;102196.19;6157603;23;20017;-80
2022/10/10 09:04:03;;;;;;;49.30;46.70;;;;;;;19.92;48.07;102194.09;6157879;23;20026;-81
2022/10/10 09:06:47;;;;;;;48.53;45.70;;;;;;;19.45;58.03;102190.22;6156807;23;20069;-79
2022/10/10 09:09:25;;;;;;;53.20;50.60;;;;;;;19.53;55.54;102205.22;6156428;23;20506;-78
2022/10/10 09:12:02;;;;;;;48.17;45.67;;;;;;;19.86;53.18;102193.16;6155935;23;20029;-79
2022/10/10 09:14:37;;;;;;;36.78;34.67;;;;;;;19.91;51.68;102187.88;6155924;23;20096;-79
2022/10/10 09:17:17;;;;;;;56.42;53.63;;;;;;;18.94;50.24;102204.97;6156148;23;20021;-79
2022/10/10 09:19:57;;;;;;;53.90;50.97;;;;;;;18.92;52.42;102201.69;6156783;23;20111;-79
2022/10/10 09:22:30;;;;;;;57.17;54.03;;;;;;;19.04;52.97;102204.44;6151563;23;20025;-79
2022/10/10 09:25:04;;;;;;;54.63;51.72;;;;;;;19.42;52.33;102193.34;6149482;23;20021;-78
2022/10/10 09:27:37;;;;;;;54.95;50.95;;;;;;;19.04;51.83;102209.00;6151639;23;20423;-79
2022/10/10 09:30:06;;;;;;;50.50;47.55;;;;;;;19.15;55.07;102202.84;6151207;23;20404;-79
2022/10/10 09:32:40;;;;;;;47.20;44.70;;;;;;;19.11;50.96;102199.78;6151886;23;20026;-78
2022/10/10 09:35:16;;;;;;;34.95;32.72;;;;;;;19.33;53.74;102194.72;6149309;23;20036;-79
2022/10/10 09:37:44;;;;;;;35.05;32.58;;;;;;;19.19;53.41;102199.47;6154958;23;20450;-79
2022/10/10 09:40:20;;;;;;;35.70;33.60;;;;;;;19.37;58.43;102184.31;6153528;23;20100;-78
2022/10/10 09:42:46;;;;;;;36.05;33.75;;;;;;;18.89;51.27;102198.63;6156150;23;20024;-79
2022/10/10 09:45:18;;;;;;;36.33;34.13;;;;;;;18.93;57.48;102186.34;6156150;23;20056;-80
2022/10/10 09:47:48;;;;;;;34.83;32.80;;;;;;;19.30;55.12;102189.78;6156251;23;20054;-80
2022/10/10 09:50:16;;;;;;;37.22;34.88;;;;;;;19.73;51.68;102178.00;6154697;23;20347;-79
2022/10/10 09:52:44;;;;;;;38.40;35.90;;;;;;;19.64;55.58;102184.75;6155943;23;20335;-79
2022/10/10 09:55:25;;;;;;;39.83;37.53;;;;;;;19.52;49.88;102189.31;6156078;23;20022;-78
2022/10/10 09:57:53;;;;;;;39.08;36.65;;;;;;;19.77;51.89;102181.88;6156293;23;20022;-81
2022/10/10 10:00:32;;;;;;;39.42;36.75;;;;;;;19.25;51.01;102180.78;6156033;23;20113;-79
2022/10/10 10:03:16;;;;;;;41.67;39.28;;;;;;;19.99;58.69;102168.66;6155209;23;20092;-81
2022/10/10 10:05:46;;;;;;;41.42;38.95;;;;;;;20.12;55.84;102181.91;6155634;23;20091;-79
2022/10/10 10:08:22;;;;;;;42.40;39.70;;;;;;;20.29;48.67;102168.53;6155962;23;20033;-84
2022/10/10 10:10:49;;;;;;;42.47;39.92;;;;;;;20.26;54.78;102169.00;6156355;23;20469;-80
2022/10/10 10:13:24;;;;;;;41.28;38.28;;;;;;;20.36;51.68;102166.56;6156157;23;20026;-78
2022/10/10 10:15:58;;;;;;;39.58;37.03;;;;;;;20.75;53.75;102158.75;6156255;23;20021;-79
2022/10/10 10:18:28;;;;;;;40.20;37.80;;;;;;;20.74;49.10;102156.28;6155627;23;20022;-79
2022/10/10 10:21:10;;;;;;;46.42;43.60;;;;;;;21.32;48.62;102140.91;6156108;23;20025;-80
2022/10/10 10:23:42;;;;;;;43.33;40.63;;;;;;;21.94;47.61;102138.19;6156484;23;20394;-79
2022/10/10 10:26:17;;;;;;;42.85;40.00;;;;;;;22.61;47.59;102139.91;6156004;23;20021;-81
2022/10/10 10:28:46;;;;;;;38.17;35.88;;;;;;;22.58;44.19;102124.19;6155920;23;20087;-79
2022/10/10 10:31:36;;;;;;;38.72;36.50;;;;;;;22.56;46.85;102129.84;6155802;23;20033;-79
2022/10/10 10:34:27;;;;;;;38.15;35.95;;;;;;;23.26;44.46;102117.31;6155683;23;20437;-79
2022/10/10 10:37:03;;;;;;;37.85;35.42;;;;;;;23.49;39.91;102118.06;6150138;23;20076;-79
2022/10/10 10:39:43;;;;;;;36.40;34.05;;;;;;;23.13;46.54;102114.22;6155413;23;20052;-79
2022/10/10 10:42:25;;;;;;;37.00;34.70;;;;;;;23.18;38.20;102116.97;6155485;23;20026;-80
2022/10/10 10:45:06;;;;;;;38.03;35.50;;;;;;;23.16;40.53;102111.00;6155891;23;20029;-79
2022/10/10 10:47:44;;;;;;;36.92;34.42;;;;;;;23.07;45.87;102113.38;6155673;23;20021;-79
2022/10/10 10:50:30;;;;;;;37.95;35.25;;;;;;;22.38;42.20;102103.06;6155978;23;20028;-79
2022/10/10 10:53:02;;;;;;;38.28;35.55;;;;;;;22.55;48.30;102100.31;6156066;23;20096;-79
2022/10/10 10:55:39;;;;;;;38.28;35.85;;;;;;;23.04;41.79;102097.63;6154931;23;20025;-79
2022/10/10 10:58:40;;;;;;;39.88;37.42;;;;;;;23.07;47.12;102094.41;6156219;23;20017;-81
2022/10/10 11:01:14;;;;;;;40.90;38.40;;;;;;;23.26;42.50;102092.94;6155240;23;20147;-79
2022/10/10 11:03:51;;;;;;;46.58;43.78;;;;;;;24.29;37.65;102093.63;6155572;23;20022;-79
2022/10/10 11:06:40;;;;;;;55.25;52.13;;;;;;;23.36;37.08;102080.53;6154913;23;20443;-80
2022/10/10 11:09:14;;;;;;;45.03;42.42;;;;;;;24.11;40.38;102070.47;6155132;23;20026;-79
2022/10/10 11:11:56;;;;;;;45.10;42.28;;;;;;;23.74;38.55;102074.88;6155702;23;20048;-79
2022/10/10 11:14:41;;;;;;;45.88;43.28;;;;;;;24.21;40.44;102065.94;6155901;23;20033;-79
2022/10/10 11:17:14;;;;;;;41.33;39.13;;;;;;;23.80;45.32;102059.47;6155435;23;20451;-79
2022/10/10 11:19:47;;;;;;;43.13;40.65;;;;;;;24.79;37.51;102056.91;6155888;23;20036;-80
2022/10/10 11:22:19;;;;;;;44.67;42.17;;;;;;;23.99;38.06;102052.53;6153924;23;20021;-80